Gearhart, Oregon
Current Conditions -  °F | °C
As of 1:13 AM on Sunday 21 Dec 2014 (Local Time) from KAST Reporting Station
Overcast Overcast  
Wind Chill: 13°   Ceiling: 1700
Heat Index: 13°   Visibility: 8mi
Dew Point: 11°   Wind: 16mph
Humidity: 89%   Direction: 250°WSW
Pressure: 29.78"   Gusts: 25mph
Location:  45.8905°N, 123.667°W
Report Text: KAST 210913Z AUTO 25014G22KT 8SM FEW012 BKN017 OVC022 13/11 A2978 RMK AO2 RAE0858 P0000 T01280111 $
Loading
Personal Weather Stations






























Interactive Weather Map New forecast layout! Learn more

10-Day Weather Forecast

Advertisements
Track Severe Weather on mobile